sensor_id;sensor_type;location;lat;lon;timestamp;temperature;humidity
18741;DHT22;9499;52.472;13.448;2023-03-14T00:01:00;12.90;1.00
18741;DHT22;9499;52.472;13.448;2023-03-14T00:03:33;12.90;1.00
18741;DHT22;9499;52.472;13.448;2023-03-14T00:06:02;12.90;1.00
18741;DHT22;9499;52.472;13.448;2023-03-14T00:08:28;12.80;1.00
18741;DHT22;9499;52.472;13.448;2023-03-14T00:10:55;12.80;1.00
18741;DHT22;9499;52.472;13.448;2023-03-14T00:13:24;12.80;1.00
18741;DHT22;9499;52.472;13.448;2023-03-14T00:15:51;12.80;1.00
18741;DHT22;9499;52.472;13.448;2023-03-14T00:18:17;12.70;1.00
18741;DHT22;9499;52.472;13.448;2023-03-14T00:20:45;12.70;1.00
18741;DHT22;9499;52.472;13.448;2023-03-14T00:23:11;12.60;1.00
18741;DHT22;9499;52.472;13.448;2023-03-14T00:25:38;12.60;1.00
18741;DHT22;9499;52.472;13.448;2023-03-14T00:28:04;12.60;1.00
18741;DHT22;9499;52.472;13.448;2023-03-14T00:30:32;12.60;2.30
18741;DHT22;9499;52.472;13.448;2023-03-14T00:32:59;12.60;6.10
18741;DHT22;9499;52.472;13.448;2023-03-14T00:35:25;12.50;15.00
18741;DHT22;9499;52.472;13.448;2023-03-14T00:37:52;12.50;20.20
18741;DHT22;9499;52.472;13.448;2023-03-14T00:40:18;12.40;25.00
18741;DHT22;9499;52.472;13.448;2023-03-14T00:42:45;12.40;32.00
18741;DHT22;9499;52.472;13.448;2023-03-14T00:45:11;12.40;38.30
18741;DHT22;9499;52.472;13.448;2023-03-14T00:47:39;12.40;39.80
18741;DHT22;9499;52.472;13.448;2023-03-14T00:50:06;12.40;37.40
18741;DHT22;9499;52.472;13.448;2023-03-14T00:52:33;12.30;49.10
18741;DHT22;9499;52.472;13.448;2023-03-14T00:55:00;12.30;48.50
18741;DHT22;9499;52.472;13.448;2023-03-14T00:57:26;12.30;56.80
18741;DHT22;9499;52.472;13.448;2023-03-14T00:59:53;12.20;59.90
18741;DHT22;9499;52.472;13.448;2023-03-14T01:02:19;12.20;60.10
18741;DHT22;9499;52.472;13.448;2023-03-14T01:04:48;12.20;60.00
18741;DHT22;9499;52.472;13.448;2023-03-14T01:07:16;12.20;61.50
18741;DHT22;9499;52.472;13.448;2023-03-14T01:09:43;12.10;70.30
18741;DHT22;9499;52.472;13.448;2023-03-14T01:12:09;12.10;69.30
18741;DHT22;9499;52.472;13.448;2023-03-14T01:14:36;12.10;66.10
18741;DHT22;9499;52.472;13.448;2023-03-14T01:17:02;12.10;67.90
18741;DHT22;9499;52.472;13.448;2023-03-14T01:19:29;12.10;77.60
18741;DHT22;9499;52.472;13.448;2023-03-14T01:21:57;12.00;71.20
18741;DHT22;9499;52.472;13.448;2023-03-14T01:24:23;12.00;79.40
18741;DHT22;9499;52.472;13.448;2023-03-14T01:26:50;12.00;78.80
18741;DHT22;9499;52.472;13.448;2023-03-14T01:29:16;12.00;80.60
18741;DHT22;9499;52.472;13.448;2023-03-14T01:31:43;12.00;77.90
18741;DHT22;9499;52.472;13.448;2023-03-14T01:34:09;12.00;83.20
18741;DHT22;9499;52.472;13.448;2023-03-14T01:36:36;12.00;77.00
18741;DHT22;9499;52.472;13.448;2023-03-14T01:39:04;11.90;81.90
18741;DHT22;9499;52.472;13.448;2023-03-14T01:41:32;12.00;82.80
18741;DHT22;9499;52.472;13.448;2023-03-14T01:43:58;12.00;77.00
18741;DHT22;9499;52.472;13.448;2023-03-14T01:46:29;12.00;73.20
18741;DHT22;9499;52.472;13.448;2023-03-14T01:49:01;12.00;73.90
18741;DHT22;9499;52.472;13.448;2023-03-14T01:51:32;12.00;68.00
18741;DHT22;9499;52.472;13.448;2023-03-14T01:54:07;12.00;66.70
18741;DHT22;9499;52.472;13.448;2023-03-14T01:56:35;12.00;67.00
18741;DHT22;9499;52.472;13.448;2023-03-14T01:59:04;12.00;64.60
18741;DHT22;9499;52.472;13.448;2023-03-14T02:01:33;12.00;66.40
18741;DHT22;9499;52.472;13.448;2023-03-14T02:04:03;12.00;64.30
18741;DHT22;9499;52.472;13.448;2023-03-14T02:06:35;12.00;68.20
18741;DHT22;9499;52.472;13.448;2023-03-14T02:09:06;12.00;71.30
18741;DHT22;9499;52.472;13.448;2023-03-14T02:11:33;12.00;69.60
18741;DHT22;9499;52.472;13.448;2023-03-14T02:14:01;12.00;70.50
18741;DHT22;9499;52.472;13.448;2023-03-14T02:16:28;11.90;69.30
18741;DHT22;9499;52.472;13.448;2023-03-14T02:18:56;11.90;76.20
18741;DHT22;9499;52.472;13.448;2023-03-14T02:21:31;11.90;71.90
18741;DHT22;9499;52.472;13.448;2023-03-14T02:24:09;11.90;74.70
18741;DHT22;9499;52.472;13.448;2023-03-14T02:26:43;11.90;72.60
18741;DHT22;9499;52.472;13.448;2023-03-14T02:29:12;11.90;73.10
18741;DHT22;9499;52.472;13.448;2023-03-14T02:31:39;11.80;75.40
18741;DHT22;9499;52.472;13.448;2023-03-14T02:34:06;11.80;80.80
18741;DHT22;9499;52.472;13.448;2023-03-14T02:36:33;11.80;83.00
18741;DHT22;9499;52.472;13.448;2023-03-14T02:39:13;11.80;81.00
18741;DHT22;9499;52.472;13.448;2023-03-14T02:41:41;11.80;83.90
18741;DHT22;9499;52.472;13.448;2023-03-14T02:44:10;11.80;76.00
18741;DHT22;9499;52.472;13.448;2023-03-14T02:46:38;11.80;74.30
18741;DHT22;9499;52.472;13.448;2023-03-14T02:49:07;11.70;75.20
18741;DHT22;9499;52.472;13.448;2023-03-14T02:51:35;11.80;81.60
18741;DHT22;9499;52.472;13.448;2023-03-14T02:54:02;11.70;72.10
18741;DHT22;9499;52.472;13.448;2023-03-14T02:56:28;11.80;70.00
18741;DHT22;9499;52.472;13.448;2023-03-14T02:58:55;11.80;73.30
18741;DHT22;9499;52.472;13.448;2023-03-14T03:01:23;11.80;61.90
18741;DHT22;9499;52.472;13.448;2023-03-14T03:03:50;11.80;64.20
18741;DHT22;9499;52.472;13.448;2023-03-14T03:06:17;11.80;61.50
18741;DHT22;9499;52.472;13.448;2023-03-14T03:08:43;11.80;57.80
18741;DHT22;9499;52.472;13.448;2023-03-14T03:11:10;11.80;58.80
18741;DHT22;9499;52.472;13.448;2023-03-14T03:13:36;11.70;61.10
18741;DHT22;9499;52.472;13.448;2023-03-14T03:16:04;11.70;58.30
18741;DHT22;9499;52.472;13.448;2023-03-14T03:18:31;11.70;61.90
18741;DHT22;9499;52.472;13.448;2023-03-14T03:21:00;11.70;55.70
18741;DHT22;9499;52.472;13.448;2023-03-14T03:23:27;11.70;64.40
18741;DHT22;9499;52.472;13.448;2023-03-14T03:25:54;11.70;61.60
18741;DHT22;9499;52.472;13.448;2023-03-14T03:28:21;11.70;58.90
18741;DHT22;9499;52.472;13.448;2023-03-14T03:30:47;11.70;54.90
18741;DHT22;9499;52.472;13.448;2023-03-14T03:33:14;11.70;59.50
18741;DHT22;9499;52.472;13.448;2023-03-14T03:35:45;11.60;68.90
18741;DHT22;9499;52.472;13.448;2023-03-14T03:38:13;11.60;63.90
18741;DHT22;9499;52.472;13.448;2023-03-14T03:40:40;11.60;61.50
18741;DHT22;9499;52.472;13.448;2023-03-14T03:43:06;11.60;72.50
18741;DHT22;9499;52.472;13.448;2023-03-14T03:45:33;11.60;76.10
18741;DHT22;9499;52.472;13.448;2023-03-14T03:48:00;11.50;78.50
18741;DHT22;9499;52.472;13.448;2023-03-14T03:50:26;11.60;82.20
18741;DHT22;9499;52.472;13.448;2023-03-14T03:52:53;11.50;81.40
18741;DHT22;9499;52.472;13.448;2023-03-14T03:55:21;11.50;77.80
18741;DHT22;9499;52.472;13.448;2023-03-14T03:57:47;11.50;69.70
18741;DHT22;9499;52.472;13.448;2023-03-14T04:00:14;11.50;77.60
18741;DHT22;9499;52.472;13.448;2023-03-14T04:02:41;11.50;80.80
18741;DHT22;9499;52.472;13.448;2023-03-14T04:05:08;11.50;70.60
18741;DHT22;9499;52.472;13.448;2023-03-14T04:07:35;11.40;67.20
18741;DHT22;9499;52.472;13.448;2023-03-14T04:10:01;11.40;68.60
18741;DHT22;9499;52.472;13.448;2023-03-14T04:12:29;11.40;67.50
18741;DHT22;9499;52.472;13.448;2023-03-14T04:14:56;11.40;66.90
18741;DHT22;9499;52.472;13.448;2023-03-14T04:17:23;11.40;61.70
18741;DHT22;9499;52.472;13.448;2023-03-14T04:19:49;11.40;63.20
18741;DHT22;9499;52.472;13.448;2023-03-14T04:22:18;11.40;60.30
18741;DHT22;9499;52.472;13.448;2023-03-14T04:24:45;11.40;61.50
18741;DHT22;9499;52.472;13.448;2023-03-14T04:27:11;11.40;55.50
18741;DHT22;9499;52.472;13.448;2023-03-14T04:29:41;11.40;56.50
18741;DHT22;9499;52.472;13.448;2023-03-14T04:32:07;11.40;56.60
18741;DHT22;9499;52.472;13.448;2023-03-14T04:34:34;11.40;51.50
18741;DHT22;9499;52.472;13.448;2023-03-14T04:37:00;11.40;49.10
18741;DHT22;9499;52.472;13.448;2023-03-14T04:39:27;11.40;57.80
18741;DHT22;9499;52.472;13.448;2023-03-14T04:41:54;11.40;49.60
18741;DHT22;9499;52.472;13.448;2023-03-14T04:44:20;11.40;49.50
18741;DHT22;9499;52.472;13.448;2023-03-14T04:46:48;11.40;43.00
18741;DHT22;9499;52.472;13.448;2023-03-14T04:49:15;11.40;41.20
18741;DHT22;9499;52.472;13.448;2023-03-14T04:51:41;11.30;43.50
18741;DHT22;9499;52.472;13.448;2023-03-14T04:54:08;11.40;35.20
18741;DHT22;9499;52.472;13.448;2023-03-14T04:56:34;11.40;34.20
18741;DHT22;9499;52.472;13.448;2023-03-14T04:59:02;11.40;31.60
18741;DHT22;9499;52.472;13.448;2023-03-14T05:01:29;11.40;29.80
18741;DHT22;9499;52.472;13.448;2023-03-14T05:03:56;11.40;26.30
18741;DHT22;9499;52.472;13.448;2023-03-14T05:06:23;11.40;25.60
18741;DHT22;9499;52.472;13.448;2023-03-14T05:08:49;11.40;25.10
18741;DHT22;9499;52.472;13.448;2023-03-14T05:11:16;11.40;22.30
18741;DHT22;9499;52.472;13.448;2023-03-14T05:13:43;11.30;21.60
18741;DHT22;9499;52.472;13.448;2023-03-14T05:16:11;11.40;22.10
18741;DHT22;9499;52.472;13.448;2023-03-14T05:18:37;11.30;20.10
18741;DHT22;9499;52.472;13.448;2023-03-14T05:21:06;11.30;13.90
18741;DHT22;9499;52.472;13.448;2023-03-14T05:23:32;11.30;11.10
18741;DHT22;9499;52.472;13.448;2023-03-14T05:25:59;11.30;3.60
18741;DHT22;9499;52.472;13.448;2023-03-14T05:28:25;11.30;14.40
18741;DHT22;9499;52.472;13.448;2023-03-14T05:30:52;11.30;10.60
18741;DHT22;9499;52.472;13.448;2023-03-14T05:33:19;11.30;9.60
18741;DHT22;9499;52.472;13.448;2023-03-14T05:35:46;11.30;4.60
18741;DHT22;9499;52.472;13.448;2023-03-14T05:38:13;11.30;1.00
18741;DHT22;9499;52.472;13.448;2023-03-14T05:40:40;11.30;1.00
18741;DHT22;9499;52.472;13.448;2023-03-14T05:43:08;11.30;1.00
18741;DHT22;9499;52.472;13.448;2023-03-14T05:45:34;11.30;1.00
18741;DHT22;9499;52.472;13.448;2023-03-14T05:48:01;11.40;1.00
18741;DHT22;9499;52.472;13.448;2023-03-14T05:50:27;11.30;1.00
18741;DHT22;9499;52.472;13.448;2023-03-14T05:52:54;11.30;1.00
18741;DHT22;9499;52.472;13.448;2023-03-14T05:55:22;11.40;1.00
18741;DHT22;9499;52.472;13.448;2023-03-14T05:57:48;11.40;1.00
18741;DHT22;9499;52.472;13.448;2023-03-14T06:00:16;11.40;1.00
18741;DHT22;9499;52.472;13.448;2023-03-14T06:02:43;11.40;1.00
18741;DHT22;9499;52.472;13.448;2023-03-14T06:05:09;11.40;1.00
18741;DHT22;9499;52.472;13.448;2023-03-14T06:07:36;11.40;1.00
18741;DHT22;9499;52.472;13.448;2023-03-14T06:10:03;11.40;1.00
18741;DHT22;9499;52.472;13.448;2023-03-14T06:12:31;11.40;1.00
18741;DHT22;9499;52.472;13.448;2023-03-14T06:14:58;11.40;1.00
18741;DHT22;9499;52.472;13.448;2023-03-14T06:17:24;11.40;1.00
18741;DHT22;9499;52.472;13.448;2023-03-14T06:19:51;11.40;1.00
18741;DHT22;9499;52.472;13.448;2023-03-14T06:22:17;11.50;1.00
18741;DHT22;9499;52.472;13.448;2023-03-14T06:24:44;11.50;1.00
18741;DHT22;9499;52.472;13.448;2023-03-14T06:27:11;11.50;1.00
18741;DHT22;9499;52.472;13.448;2023-03-14T06:29:39;11.50;1.00
18741;DHT22;9499;52.472;13.448;2023-03-14T06:32:05;11.60;1.00
18741;DHT22;9499;52.472;13.448;2023-03-14T06:34:32;11.60;1.00
18741;DHT22;9499;52.472;13.448;2023-03-14T06:36:59;11.60;1.00
18741;DHT22;9499;52.472;13.448;2023-03-14T06:39:25;11.60;1.00
18741;DHT22;9499;52.472;13.448;2023-03-14T06:41:52;11.70;1.00
18741;DHT22;9499;52.472;13.448;2023-03-14T06:44:18;11.60;1.00
18741;DHT22;9499;52.472;13.448;2023-03-14T06:46:46;11.70;1.00
18741;DHT22;9499;52.472;13.448;2023-03-14T06:49:13;11.70;1.00
18741;DHT22;9499;52.472;13.448;2023-03-14T06:51:39;11.70;1.00
18741;DHT22;9499;52.472;13.448;2023-03-14T06:54:06;11.80;1.00
18741;DHT22;9499;52.472;13.448;2023-03-14T06:56:32;11.80;1.00
18741;DHT22;9499;52.472;13.448;2023-03-14T06:58:59;11.80;1.00
18741;DHT22;9499;52.472;13.448;2023-03-14T07:01:27;11.80;1.00
18741;DHT22;9499;52.472;13.448;2023-03-14T07:03:56;11.80;1.00
18741;DHT22;9499;52.472;13.448;2023-03-14T07:06:23;11.90;1.00
18741;DHT22;9499;52.472;13.448;2023-03-14T07:08:50;11.90;1.00
18741;DHT22;9499;52.472;13.448;2023-03-14T07:11:17;11.90;1.00
18741;DHT22;9499;52.472;13.448;2023-03-14T07:13:43;11.90;1.00
18741;DHT22;9499;52.472;13.448;2023-03-14T07:16:10;12.00;1.00
18741;DHT22;9499;52.472;13.448;2023-03-14T07:18:36;11.90;1.00
18741;DHT22;9499;52.472;13.448;2023-03-14T07:21:05;12.00;1.00
18741;DHT22;9499;52.472;13.448;2023-03-14T07:23:33;12.00;1.00
18741;DHT22;9499;52.472;13.448;2023-03-14T07:26:00;12.00;1.00
18741;DHT22;9499;52.472;13.448;2023-03-14T07:28:27;12.00;1.00
18741;DHT22;9499;52.472;13.448;2023-03-14T07:30:54;12.00;1.00
18741;DHT22;9499;52.472;13.448;2023-03-14T07:33:20;12.00;1.00
18741;DHT22;9499;52.472;13.448;2023-03-14T07:35:47;12.00;1.00
18741;DHT22;9499;52.472;13.448;2023-03-14T07:38:15;12.00;1.00
18741;DHT22;9499;52.472;13.448;2023-03-14T07:40:42;12.00;1.00
18741;DHT22;9499;52.472;13.448;2023-03-14T07:43:08;12.00;1.00
18741;DHT22;9499;52.472;13.448;2023-03-14T07:45:38;12.10;1.00
18741;DHT22;9499;52.472;13.448;2023-03-14T07:48:05;12.10;1.00
18741;DHT22;9499;52.472;13.448;2023-03-14T07:50:31;12.10;1.00
18741;DHT22;9499;52.472;13.448;2023-03-14T07:52:58;12.00;1.00
18741;DHT22;9499;52.472;13.448;2023-03-14T07:55:26;12.00;1.00
18741;DHT22;9499;52.472;13.448;2023-03-14T07:57:53;12.00;1.00
18741;DHT22;9499;52.472;13.448;2023-03-14T08:00:20;12.00;1.00
18741;DHT22;9499;52.472;13.448;2023-03-14T08:02:47;12.10;1.00
18741;DHT22;9499;52.472;13.448;2023-03-14T08:05:16;12.10;1.00
18741;DHT22;9499;52.472;13.448;2023-03-14T08:07:46;12.10;1.00
18741;DHT22;9499;52.472;13.448;2023-03-14T08:10:13;12.20;1.00
18741;DHT22;9499;52.472;13.448;2023-03-14T08:12:48;12.20;1.00
18741;DHT22;9499;52.472;13.448;2023-03-14T08:15:15;12.30;1.00
18741;DHT22;9499;52.472;13.448;2023-03-14T08:17:41;12.30;1.00
18741;DHT22;9499;52.472;13.448;2023-03-14T08:20:09;12.40;1.00
18741;DHT22;9499;52.472;13.448;2023-03-14T08:22:37;12.40;1.00
18741;DHT22;9499;52.472;13.448;2023-03-14T08:25:05;12.40;1.00
18741;DHT22;9499;52.472;13.448;2023-03-14T08:27:32;12.40;1.00
18741;DHT22;9499;52.472;13.448;2023-03-14T08:29:59;12.40;1.00
18741;DHT22;9499;52.472;13.448;2023-03-14T08:32:26;12.40;1.00
18741;DHT22;9499;52.472;13.448;2023-03-14T08:34:52;12.40;1.00
18741;DHT22;9499;52.472;13.448;2023-03-14T08:37:19;12.40;1.00
18741;DHT22;9499;52.472;13.448;2023-03-14T08:39:46;12.40;1.00
18741;DHT22;9499;52.472;13.448;2023-03-14T08:42:12;12.40;99.90
18741;DHT22;9499;52.472;13.448;2023-03-14T08:44:39;12.50;1.00
18741;DHT22;9499;52.472;13.448;2023-03-14T08:47:07;12.50;99.90
18741;DHT22;9499;52.472;13.448;2023-03-14T08:49:33;12.50;1.00
18741;DHT22;9499;52.472;13.448;2023-03-14T08:52:01;12.50;1.00
18741;DHT22;9499;52.472;13.448;2023-03-14T08:54:27;12.50;1.00
18741;DHT22;9499;52.472;13.448;2023-03-14T08:56:54;12.50;99.90
18741;DHT22;9499;52.472;13.448;2023-03-14T08:59:21;12.60;99.90
18741;DHT22;9499;52.472;13.448;2023-03-14T09:01:48;12.60;99.90
18741;DHT22;9499;52.472;13.448;2023-03-14T09:04:16;12.60;99.90
18741;DHT22;9499;52.472;13.448;2023-03-14T09:06:43;12.60;99.90
18741;DHT22;9499;52.472;13.448;2023-03-14T09:09:09;12.60;99.90
18741;DHT22;9499;52.472;13.448;2023-03-14T09:11:36;12.70;99.90
18741;DHT22;9499;52.472;13.448;2023-03-14T09:14:02;12.70;99.90
18741;DHT22;9499;52.472;13.448;2023-03-14T09:16:29;12.70;99.90
18741;DHT22;9499;52.472;13.448;2023-03-14T09:18:55;12.80;99.90
18741;DHT22;9499;52.472;13.448;2023-03-14T09:21:26;12.90;99.90
18741;DHT22;9499;52.472;13.448;2023-03-14T09:23:53;13.00;99.90
18741;DHT22;9499;52.472;13.448;2023-03-14T09:26:19;13.00;1.00
18741;DHT22;9499;52.472;13.448;2023-03-14T09:28:46;13.10;41.60
18741;DHT22;9499;52.472;13.448;2023-03-14T09:31:13;13.10;1.00
18741;DHT22;9499;52.472;13.448;2023-03-14T09:33:40;13.20;1.00
18741;DHT22;9499;52.472;13.448;2023-03-14T09:36:07;13.30;99.90
18741;DHT22;9499;52.472;13.448;2023-03-14T09:38:35;13.30;99.90
18741;DHT22;9499;52.472;13.448;2023-03-14T09:41:09;13.40;99.90
18741;DHT22;9499;52.472;13.448;2023-03-14T09:43:40;13.50;1.00
18741;DHT22;9499;52.472;13.448;2023-03-14T09:46:09;13.50;1.00
18741;DHT22;9499;52.472;13.448;2023-03-14T09:48:37;13.70;1.00
18741;DHT22;9499;52.472;13.448;2023-03-14T09:51:06;13.70;1.00
18741;DHT22;9499;52.472;13.448;2023-03-14T09:53:39;13.70;1.00
18741;DHT22;9499;52.472;13.448;2023-03-14T09:56:13;13.70;1.00
18741;DHT22;9499;52.472;13.448;2023-03-14T09:58:41;13.70;1.00
18741;DHT22;9499;52.472;13.448;2023-03-14T10:01:13;13.60;1.00
18741;DHT22;9499;52.472;13.448;2023-03-14T10:03:42;13.50;1.00
18741;DHT22;9499;52.472;13.448;2023-03-14T10:06:12;13.50;99.90
18741;DHT22;9499;52.472;13.448;2023-03-14T10:08:41;13.40;1.00
18741;DHT22;9499;52.472;13.448;2023-03-14T10:11:13;13.40;99.90
18741;DHT22;9499;52.472;13.448;2023-03-14T10:13:48;13.50;99.90
18741;DHT22;9499;52.472;13.448;2023-03-14T10:16:15;13.50;99.90
18741;DHT22;9499;52.472;13.448;2023-03-14T10:18:45;13.50;99.90
18741;DHT22;9499;52.472;13.448;2023-03-14T10:21:20;13.50;99.90
18741;DHT22;9499;52.472;13.448;2023-03-14T10:23:48;13.50;1.00
18741;DHT22;9499;52.472;13.448;2023-03-14T10:26:17;13.50;99.90
18741;DHT22;9499;52.472;13.448;2023-03-14T10:28:46;13.50;99.90
18741;DHT22;9499;52.472;13.448;2023-03-14T10:31:13;13.50;1.00
18741;DHT22;9499;52.472;13.448;2023-03-14T10:33:40;13.50;1.00
18741;DHT22;9499;52.472;13.448;2023-03-14T10:36:17;13.50;1.00
18741;DHT22;9499;52.472;13.448;2023-03-14T10:38:45;13.60;1.00
18741;DHT22;9499;52.472;13.448;2023-03-14T10:41:18;13.50;1.00
18741;DHT22;9499;52.472;13.448;2023-03-14T10:43:49;13.50;99.90
18741;DHT22;9499;52.472;13.448;2023-03-14T10:46:18;13.50;99.90
18741;DHT22;9499;52.472;13.448;2023-03-14T10:49:05;13.50;99.90
18741;DHT22;9499;52.472;13.448;2023-03-14T10:51:32;13.50;99.90
18741;DHT22;9499;52.472;13.448;2023-03-14T10:54:01;13.50;99.90
18741;DHT22;9499;52.472;13.448;2023-03-14T10:56:36;13.50;99.90
18741;DHT22;9499;52.472;13.448;2023-03-14T10:59:06;13.50;99.90
18741;DHT22;9499;52.472;13.448;2023-03-14T11:01:40;13.50;1.00
18741;DHT22;9499;52.472;13.448;2023-03-14T11:04:15;13.50;99.90
18741;DHT22;9499;52.472;13.448;2023-03-14T11:06:48;13.50;99.90
18741;DHT22;9499;52.472;13.448;2023-03-14T11:09:21;13.50;99.90
18741;DHT22;9499;52.472;13.448;2023-03-14T11:11:50;13.50;99.90
18741;DHT22;9499;52.472;13.448;2023-03-14T11:14:26;13.50;99.90
18741;DHT22;9499;52.472;13.448;2023-03-14T11:17:00;13.60;99.90
18741;DHT22;9499;52.472;13.448;2023-03-14T11:19:35;13.60;1.00
18741;DHT22;9499;52.472;13.448;2023-03-14T11:22:14;13.60;1.00
18741;DHT22;9499;52.472;13.448;2023-03-14T11:24:59;13.70;1.00
18741;DHT22;9499;52.472;13.448;2023-03-14T11:27:38;13.70;1.00
18741;DHT22;9499;52.472;13.448;2023-03-14T11:30:19;13.70;1.00
18741;DHT22;9499;52.472;13.448;2023-03-14T11:32:48;13.70;1.00
18741;DHT22;9499;52.472;13.448;2023-03-14T11:35:22;13.70;1.00
18741;DHT22;9499;52.472;13.448;2023-03-14T11:37:53;13.60;99.90
18741;DHT22;9499;52.472;13.448;2023-03-14T11:40:22;13.60;99.90
18741;DHT22;9499;52.472;13.448;2023-03-14T11:42:59;13.70;1.00
18741;DHT22;9499;52.472;13.448;2023-03-14T11:45:30;13.70;99.90
18741;DHT22;9499;52.472;13.448;2023-03-14T11:48:12;13.70;1.00
18741;DHT22;9499;52.472;13.448;2023-03-14T11:50:42;13.70;99.90
18741;DHT22;9499;52.472;13.448;2023-03-14T11:53:13;13.70;1.00
18741;DHT22;9499;52.472;13.448;2023-03-14T11:55:42;13.60;1.00
18741;DHT22;9499;52.472;13.448;2023-03-14T11:58:14;13.60;1.00
18741;DHT22;9499;52.472;13.448;2023-03-14T12:00:43;13.50;96.60
18741;DHT22;9499;52.472;13.448;2023-03-14T12:03:16;13.50;99.90
18741;DHT22;9499;52.472;13.448;2023-03-14T12:05:56;13.40;99.90
18741;DHT22;9499;52.472;13.448;2023-03-14T12:08:44;13.30;99.90
18741;DHT22;9499;52.472;13.448;2023-03-14T12:11:17;13.30;99.90
18741;DHT22;9499;52.472;13.448;2023-03-14T12:13:49;13.30;99.90
18741;DHT22;9499;52.472;13.448;2023-03-14T12:16:34;13.30;99.90
18741;DHT22;9499;52.472;13.448;2023-03-14T12:19:26;13.30;99.90
18741;DHT22;9499;52.472;13.448;2023-03-14T12:21:55;13.30;99.90
18741;DHT22;9499;52.472;13.448;2023-03-14T12:24:26;13.40;99.90
18741;DHT22;9499;52.472;13.448;2023-03-14T12:26:56;13.40;99.90
18741;DHT22;9499;52.472;13.448;2023-03-14T12:29:24;13.40;99.90
18741;DHT22;9499;52.472;13.448;2023-03-14T12:32:08;13.40;99.90
18741;DHT22;9499;52.472;13.448;2023-03-14T12:34:39;13.40;1.00
18741;DHT22;9499;52.472;13.448;2023-03-14T12:37:17;13.40;99.90
18741;DHT22;9499;52.472;13.448;2023-03-14T12:39:56;13.40;99.90
18741;DHT22;9499;52.472;13.448;2023-03-14T12:42:38;13.50;99.90
18741;DHT22;9499;52.472;13.448;2023-03-14T12:45:26;13.40;1.00
18741;DHT22;9499;52.472;13.448;2023-03-14T12:47:56;13.30;1.00
18741;DHT22;9499;52.472;13.448;2023-03-14T12:50:31;13.20;1.00
18741;DHT22;9499;52.472;13.448;2023-03-14T12:55:58;13.20;1.00
18741;DHT22;9499;52.472;13.448;2023-03-14T12:58:31;13.30;1.00
18741;DHT22;9499;52.472;13.448;2023-03-14T13:01:03;13.30;1.00
18741;DHT22;9499;52.472;13.448;2023-03-14T13:03:39;13.30;1.00
18741;DHT22;9499;52.472;13.448;2023-03-14T13:06:09;13.30;1.00
18741;DHT22;9499;52.472;13.448;2023-03-14T13:08:39;13.30;1.00
18741;DHT22;9499;52.472;13.448;2023-03-14T13:11:08;13.30;1.00
18741;DHT22;9499;52.472;13.448;2023-03-14T13:13:45;13.20;1.00
18741;DHT22;9499;52.472;13.448;2023-03-14T13:16:16;13.00;1.00
18741;DHT22;9499;52.472;13.448;2023-03-14T13:18:45;12.80;1.00
18741;DHT22;9499;52.472;13.448;2023-03-14T13:21:15;12.60;1.00
18741;DHT22;9499;52.472;13.448;2023-03-14T13:23:55;12.50;17.60
18741;DHT22;9499;52.472;13.448;2023-03-14T13:26:23;12.20;40.40
18741;DHT22;9499;52.472;13.448;2023-03-14T13:28:51;12.00;66.20
18741;DHT22;9499;52.472;13.448;2023-03-14T13:31:22;11.90;95.10
18741;DHT22;9499;52.472;13.448;2023-03-14T13:34:00;11.90;83.20
18741;DHT22;9499;52.472;13.448;2023-03-14T13:36:27;12.00;62.40
18741;DHT22;9499;52.472;13.448;2023-03-14T13:38:57;12.10;56.10
18741;DHT22;9499;52.472;13.448;2023-03-14T13:41:25;12.40;90.60
18741;DHT22;9499;52.472;13.448;2023-03-14T13:43:58;12.80;2.30
18741;DHT22;9499;52.472;13.448;2023-03-14T13:46:28;13.50;1.00
18741;DHT22;9499;52.472;13.448;2023-03-14T13:48:57;14.00;1.00
18741;DHT22;9499;52.472;13.448;2023-03-14T13:51:25;14.40;1.00
18741;DHT22;9499;52.472;13.448;2023-03-14T13:53:55;14.60;99.90
18741;DHT22;9499;52.472;13.448;2023-03-14T13:56:24;14.60;99.90
18741;DHT22;9499;52.472;13.448;2023-03-14T13:58:51;14.50;99.90
18741;DHT22;9499;52.472;13.448;2023-03-14T14:01:19;14.60;99.90
18741;DHT22;9499;52.472;13.448;2023-03-14T14:03:49;14.50;99.90
18741;DHT22;9499;52.472;13.448;2023-03-14T14:06:24;14.50;52.10
18741;DHT22;9499;52.472;13.448;2023-03-14T14:08:52;14.50;99.90
18741;DHT22;9499;52.472;13.448;2023-03-14T14:11:25;14.50;99.90
18741;DHT22;9499;52.472;13.448;2023-03-14T14:13:55;14.50;99.90
18741;DHT22;9499;52.472;13.448;2023-03-14T14:16:24;14.30;1.00
18741;DHT22;9499;52.472;13.448;2023-03-14T14:18:54;14.20;1.00
18741;DHT22;9499;52.472;13.448;2023-03-14T14:21:21;14.20;99.90
18741;DHT22;9499;52.472;13.448;2023-03-14T14:23:48;14.20;1.00
18741;DHT22;9499;52.472;13.448;2023-03-14T14:26:17;14.30;1.00
18741;DHT22;9499;52.472;13.448;2023-03-14T14:28:44;14.60;99.90
18741;DHT22;9499;52.472;13.448;2023-03-14T14:31:21;14.90;99.90
18741;DHT22;9499;52.472;13.448;2023-03-14T14:33:55;14.90;57.50
18741;DHT22;9499;52.472;13.448;2023-03-14T14:36:24;14.80;99.90
18741;DHT22;9499;52.472;13.448;2023-03-14T14:38:52;14.70;91.50
18741;DHT22;9499;52.472;13.448;2023-03-14T14:41:30;14.50;1.00
18741;DHT22;9499;52.472;13.448;2023-03-14T14:44:04;14.60;80.70
18741;DHT22;9499;52.472;13.448;2023-03-14T14:46:38;14.80;99.90
18741;DHT22;9499;52.472;13.448;2023-03-14T14:49:18;14.90;99.90
18741;DHT22;9499;52.472;13.448;2023-03-14T14:51:50;14.80;62.10
18741;DHT22;9499;52.472;13.448;2023-03-14T14:54:37;14.70;99.90
18741;DHT22;9499;52.472;13.448;2023-03-14T14:57:18;14.60;1.00
18741;DHT22;9499;52.472;13.448;2023-03-14T14:59:47;14.40;1.00
18741;DHT22;9499;52.472;13.448;2023-03-14T15:02:30;14.30;1.00
18741;DHT22;9499;52.472;13.448;2023-03-14T15:04:59;14.30;1.00
18741;DHT22;9499;52.472;13.448;2023-03-14T15:07:26;14.30;1.00
18741;DHT22;9499;52.472;13.448;2023-03-14T15:09:52;14.20;1.00
18741;DHT22;9499;52.472;13.448;2023-03-14T15:12:19;14.10;1.00
18741;DHT22;9499;52.472;13.448;2023-03-14T15:14:47;14.00;98.00
18741;DHT22;9499;52.472;13.448;2023-03-14T15:17:13;13.90;99.90
18741;DHT22;9499;52.472;13.448;2023-03-14T15:19:40;13.80;99.90
18741;DHT22;9499;52.472;13.448;2023-03-14T15:22:12;13.80;99.90
18741;DHT22;9499;52.472;13.448;2023-03-14T15:24:39;13.70;1.00
18741;DHT22;9499;52.472;13.448;2023-03-14T15:27:08;12.30;1.00
18741;DHT22;9499;52.472;13.448;2023-03-14T15:29:37;10.80;1.00
18741;DHT22;9499;52.472;13.448;2023-03-14T15:32:05;9.50;99.90
18741;DHT22;9499;52.472;13.448;2023-03-14T15:34:32;8.70;99.90
18741;DHT22;9499;52.472;13.448;2023-03-14T15:36:58;8.00;99.90
18741;DHT22;9499;52.472;13.448;2023-03-14T15:39:26;7.60;99.90
18741;DHT22;9499;52.472;13.448;2023-03-14T15:41:53;7.30;99.90
18741;DHT22;9499;52.472;13.448;2023-03-14T15:44:19;7.10;99.90
18741;DHT22;9499;52.472;13.448;2023-03-14T15:46:47;6.80;99.90
18741;DHT22;9499;52.472;13.448;2023-03-14T15:49:13;6.60;99.90
18741;DHT22;9499;52.472;13.448;2023-03-14T15:51:40;6.50;99.90